Time;durP1;ratioP1;P1;durP2;ratioP2;P2;SDS_P1;SDS_P2;PMS_P1;PMS_P2;Temp;Humidity;BMP_temperature;BMP_pressure;BME280_temperature;BME280_humidity;BME280_pressure;Samples;Min_cycle;Max_cycle;Signal;HPM_P1;HPM_P2
2022/08/30 00:03:23;;;;;;;1.13;0.30;;;;;;;18.38;100.00;100824.38;7392824;19;20018;-53
2022/08/30 00:05:49;;;;;;;0.50;0.50;;;;;;;18.66;100.00;100822.47;7394150;19;20014;-53
2022/08/30 00:08:16;;;;;;;1.90;0.60;;;;;;;18.31;100.00;100819.22;7391409;19;20010;-53
2022/08/30 00:10:42;;;;;;;1.65;0.30;;;;;;;16.66;100.00;100820.94;7392397;19;20089;-53
2022/08/30 00:13:11;;;;;;;0.93;0.80;;;;;;;16.34;100.00;100822.06;7391853;19;20017;-53
2022/08/30 00:15:39;;;;;;;0.45;0.43;;;;;;;16.20;100.00;100817.25;7391822;19;20360;-53
2022/08/30 00:18:05;;;;;;;1.20;0.22;;;;;;;15.96;100.00;100825.09;7391540;19;20033;-53
2022/08/30 00:20:33;;;;;;;0.90;0.30;;;;;;;15.68;100.00;100826.75;7390643;19;20013;-53
2022/08/30 00:23:01;;;;;;;0.32;0.32;;;;;;;15.74;100.00;100827.59;7391321;19;20010;-52
2022/08/30 00:25:27;;;;;;;0.70;0.40;;;;;;;15.65;100.00;100838.94;7393450;19;20084;-53
2022/08/30 00:27:53;;;;;;;1.17;0.40;;;;;;;15.65;100.00;100838.94;7391011;19;20010;-52
2022/08/30 00:30:20;;;;;;;0.52;0.38;;;;;;;15.60;100.00;100846.03;7391158;19;20340;-53
2022/08/30 00:32:47;;;;;;;0.85;0.43;;;;;;;15.63;100.00;100844.28;7389146;19;20059;-53
2022/08/30 00:35:18;;;;;;;0.25;0.20;;;;;;;15.44;100.00;100831.72;7392205;19;20234;-53
2022/08/30 00:37:44;;;;;;;0.45;0.45;;;;;;;15.47;100.00;100839.94;7392041;19;20007;-52
2022/08/30 00:40:11;;;;;;;0.70;0.70;;;;;;;15.34;100.00;100836.63;7390502;19;20486;-52
2022/08/30 00:42:38;;;;;;;0.20;0.15;;;;;;;15.24;100.00;100842.81;7390782;19;20025;-53
2022/08/30 00:45:16;;;;;;;0.85;0.20;;;;;;;17.37;100.00;100830.59;7391645;19;20648;-53
2022/08/30 00:47:42;;;;;;;5.68;0.20;;;;;;;18.06;100.00;100838.56;7390985;19;20070;-52
2022/08/30 00:50:10;;;;;;;0.20;0.20;;;;;;;18.32;100.00;100823.59;7390037;19;20014;-53
2022/08/30 00:52:38;;;;;;;0.75;0.20;;;;;;;18.45;100.00;100827.50;7389621;19;20019;-53
2022/08/30 00:55:05;;;;;;;0.75;0.38;;;;;;;18.53;100.00;100831.41;7393566;19;20353;-53
2022/08/30 00:57:31;;;;;;;0.80;0.73;;;;;;;18.46;100.00;100828.28;7390288;19;20007;-53
2022/08/30 00:59:57;;;;;;;0.15;0.15;;;;;;;18.64;100.00;100837.09;7387609;19;20014;-53
2022/08/30 01:02:25;;;;;;;1.88;0.65;;;;;;;18.45;100.00;100835.22;7389855;19;20010;-53
2022/08/30 01:04:52;;;;;;;1.42;0.63;;;;;;;17.88;100.00;100838.97;7389981;19;20091;-53
2022/08/30 01:07:18;;;;;;;0.10;0.10;;;;;;;18.24;100.00;100830.97;7393630;19;20013;-52
2022/08/30 01:09:44;;;;;;;0.30;0.22;;;;;;;18.19;100.00;100829.69;7389146;19;20006;-53
2022/08/30 01:12:10;;;;;;;2.05;0.45;;;;;;;18.25;100.00;100833.28;7393579;19;20017;-52
2022/08/30 01:14:37;;;;;;;17.08;0.75;;;;;;;18.03;100.00;100833.94;7390270;19;20007;-53
2022/08/30 01:17:04;;;;;;;0.77;0.40;;;;;;;16.93;100.00;100835.81;7394456;19;20122;-53
2022/08/30 01:19:41;;;;;;;1.55;0.65;;;;;;;15.41;100.00;100832.66;7389633;19;20359;-52
2022/08/30 01:22:41;;;;;;;0.30;0.30;;;;;;;15.18;100.00;100837.13;7390248;19;20014;-52
2022/08/30 01:25:10;;;;;;;0.40;0.40;;;;;;;14.96;100.00;100845.13;7390573;19;20018;-53
2022/08/30 01:27:42;;;;;;;0.68;0.57;;;;;;;14.80;100.00;100837.94;7389963;19;20011;-52
2022/08/30 01:30:09;;;;;;;0.65;0.57;;;;;;;14.80;100.00;100839.97;7389823;19;20025;-52
2022/08/30 01:32:41;;;;;;;2.10;0.90;;;;;;;14.68;100.00;100853.00;7389716;19;20015;-53
2022/08/30 01:35:11;;;;;;;0.20;0.10;;;;;;;15.80;100.00;100834.06;7388792;19;20018;-52
2022/08/30 01:37:38;;;;;;;0.10;0.10;;;;;;;16.44;100.00;100843.13;7389106;19;20017;-53
2022/08/30 01:40:05;;;;;;;3.13;0.73;;;;;;;16.78;100.00;100840.75;7388243;19;20371;-53
2022/08/30 01:42:32;;;;;;;0.73;0.40;;;;;;;16.85;100.00;100845.97;7389042;19;20028;-53
2022/08/30 01:44:58;;;;;;;0.70;0.45;;;;;;;15.00;100.00;100852.09;7389041;19;20702;-53
2022/08/30 01:47:25;;;;;;;1.30;0.60;;;;;;;14.65;100.00;100848.34;7388895;19;20558;-53
2022/08/30 01:49:51;;;;;;;0.82;0.57;;;;;;;16.43;100.00;100841.59;7389709;19;20451;-53
2022/08/30 01:52:19;;;;;;;1.45;0.50;;;;;;;17.23;100.00;100837.91;7389022;19;20010;-53
2022/08/30 01:54:46;;;;;;;4.47;0.40;;;;;;;15.17;100.00;100841.94;7390892;19;20014;-52
2022/08/30 01:57:19;;;;;;;0.60;0.45;;;;;;;14.84;100.00;100838.53;7392876;19;20006;-53
2022/08/30 01:59:46;;;;;;;1.80;0.77;;;;;;;14.72;100.00;100833.97;7387074;19;20015;-53
2022/08/30 02:02:14;;;;;;;0.32;0.30;;;;;;;16.20;100.00;100834.13;7385740;19;20704;-53
2022/08/30 02:04:42;;;;;;;0.60;0.52;;;;;;;17.66;100.00;100838.81;7388840;19;20014;-52
2022/08/30 02:07:08;;;;;;;0.30;0.28;;;;;;;18.10;100.00;100830.63;7390587;19;20094;-53
2022/08/30 02:09:36;;;;;;;0.60;0.60;;;;;;;17.13;100.00;100825.25;7388826;19;20010;-53
2022/08/30 02:12:06;;;;;;;1.75;1.02;;;;;;;18.32;100.00;100826.41;7399891;19;20007;-53
2022/08/30 02:14:34;;;;;;;0.97;0.47;;;;;;;18.41;100.00;100829.03;7397083;19;20070;-53
2022/08/30 02:17:01;;;;;;;2.20;0.93;;;;;;;18.36;100.00;100838.22;7400184;19;20018;-53
2022/08/30 02:19:28;;;;;;;0.40;0.35;;;;;;;18.58;100.00;100824.25;7395628;19;20037;-53
2022/08/30 02:21:55;;;;;;;4.95;0.82;;;;;;;18.45;100.00;100832.41;7395045;19;20021;-53
2022/08/30 02:24:21;;;;;;;0.43;0.25;;;;;;;18.22;100.00;100827.88;7396335;19;20014;-53
2022/08/30 02:26:48;;;;;;;1.90;0.80;;;;;;;18.45;100.00;100830.31;7398931;19;20361;-53
2022/08/30 02:29:14;;;;;;;0.63;0.50;;;;;;;18.43;100.00;100818.00;7394172;19;20014;-53
2022/08/30 02:31:40;;;;;;;1.55;0.60;;;;;;;18.44;100.00;100817.50;7395466;19;20006;-53
2022/08/30 02:34:07;;;;;;;1.23;0.50;;;;;;;17.62;100.00;100821.38;7395510;19;20017;-53
2022/08/30 02:36:33;;;;;;;0.32;0.32;;;;;;;17.74;100.00;100825.81;7398567;19;20017;-53
2022/08/30 02:38:59;;;;;;;8.98;0.95;;;;;;;17.96;100.00;100817.50;7393047;19;20490;-53
2022/08/30 02:41:25;;;;;;;0.20;0.20;;;;;;;18.06;100.00;100816.00;7393065;19;20019;-53
2022/08/30 02:43:57;;;;;;;1.80;0.73;;;;;;;18.35;100.00;100814.09;7395671;19;20014;-53
2022/08/30 02:46:23;;;;;;;0.43;0.38;;;;;;;18.39;100.00;100814.63;7397850;19;20027;-53
2022/08/30 02:48:49;;;;;;;1.42;0.85;;;;;;;18.55;100.00;100811.13;7395066;19;20209;-54
2022/08/30 02:51:16;;;;;;;1.50;0.73;;;;;;;14.22;100.00;100816.09;7392942;19;20018;-53
2022/08/30 02:53:43;;;;;;;1.15;0.57;;;;;;;14.49;100.00;100817.94;7394631;19;20011;-53
2022/08/30 02:56:13;;;;;;;0.22;0.22;;;;;;;13.88;100.00;100816.59;7395806;19;20017;-53
2022/08/30 02:58:43;;;;;;;0.30;0.28;;;;;;;13.69;100.00;100832.72;7393375;19;20014;-53
2022/08/30 03:01:12;;;;;;;0.20;0.20;;;;;;;13.44;100.00;100824.75;7392155;19;20011;-53
2022/08/30 03:03:40;;;;;;;0.38;0.30;;;;;;;13.29;100.00;100826.66;7394238;19;20022;-53
2022/08/30 03:06:09;;;;;;;0.55;0.35;;;;;;;13.37;100.00;100827.09;7394927;19;20015;-53
2022/08/30 03:08:36;;;;;;;7.03;0.57;;;;;;;13.31;100.00;100828.97;7394495;19;20014;-53
2022/08/30 03:11:04;;;;;;;3.17;0.70;;;;;;;13.30;100.00;100825.41;7395261;19;20078;-53
2022/08/30 03:13:30;;;;;;;0.30;0.30;;;;;;;13.30;100.00;100825.41;7394152;19;20069;-53
2022/08/30 03:15:56;;;;;;;1.05;0.65;;;;;;;13.24;100.00;100826.50;7394614;19;20017;-53
2022/08/30 03:18:23;;;;;;;0.20;0.20;;;;;;;13.23;100.00;100834.13;7393706;19;20010;-53
2022/08/30 03:20:50;;;;;;;0.32;0.28;;;;;;;13.25;100.00;100823.25;7392548;19;20203;-53
2022/08/30 03:23:16;;;;;;;2.40;0.88;;;;;;;13.25;100.00;100822.47;7392684;19;20017;-53
2022/08/30 03:25:42;;;;;;;1.05;0.63;;;;;;;13.24;100.00;100829.31;7396898;19;20329;-53
2022/08/30 03:28:09;;;;;;;0.60;0.60;;;;;;;13.15;100.00;100827.31;7393521;19;20015;-53
2022/08/30 03:30:35;;;;;;;0.45;0.40;;;;;;;13.17;100.00;100829.63;7393570;19;20668;-53
2022/08/30 03:33:02;;;;;;;1.10;0.63;;;;;;;13.06;100.00;100820.97;7392651;19;20034;-53
2022/08/30 03:35:30;;;;;;;0.80;0.60;;;;;;;13.05;100.00;100825.78;7394373;19;20018;-53
2022/08/30 03:37:57;;;;;;;0.40;0.40;;;;;;;12.98;100.00;100820.47;7393360;19;20636;-53
2022/08/30 03:40:24;;;;;;;0.30;0.30;;;;;;;12.97;100.00;100824.53;7392390;19;20455;-53
2022/08/30 03:42:50;;;;;;;0.30;0.30;;;;;;;12.99;100.00;100821.25;7393687;19;20102;-53
2022/08/30 03:45:18;;;;;;;0.35;0.35;;;;;;;13.41;100.00;100808.88;7393551;19;20010;-54
2022/08/30 03:47:45;;;;;;;0.20;0.20;;;;;;;12.99;100.00;100819.25;7392430;19;20015;-53
2022/08/30 03:50:14;;;;;;;0.40;0.30;;;;;;;12.93;100.00;100813.50;7392336;19;20015;-53
2022/08/30 03:52:40;;;;;;;0.25;0.25;;;;;;;12.91;100.00;100815.19;7392334;19;20361;-53
2022/08/30 03:55:07;;;;;;;0.45;0.45;;;;;;;12.79;100.00;100814.16;7395169;19;20014;-53
2022/08/30 03:57:33;;;;;;;0.25;0.25;;;;;;;12.71;100.00;100823.31;7392258;19;20470;-53
2022/08/30 03:59:59;;;;;;;1.15;0.50;;;;;;;12.79;100.00;100813.34;7390853;19;20007;-53
2022/08/30 04:02:26;;;;;;;2.72;0.40;;;;;;;12.75;100.00;100829.50;7392495;19;20509;-53
2022/08/30 04:04:52;;;;;;;1.05;0.38;;;;;;;12.52;100.00;100828.09;7391731;19;20027;-53
2022/08/30 04:07:18;;;;;;;0.30;0.30;;;;;;;13.12;100.00;100827.47;7394606;19;20742;-53
2022/08/30 04:09:46;;;;;;;2.38;0.30;;;;;;;13.41;100.00;100825.69;7391772;19;20039;-53
2022/08/30 04:12:12;;;;;;;0.80;0.45;;;;;;;13.33;100.00;100818.09;7395859;19;20043;-53
2022/08/30 04:14:38;;;;;;;0.20;0.20;;;;;;;13.20;100.00;100825.91;7391822;19;20504;-55
2022/08/30 04:17:05;;;;;;;0.40;0.40;;;;;;;13.25;100.00;100816.88;7395531;19;20014;-53
2022/08/30 04:19:31;;;;;;;1.55;0.65;;;;;;;13.31;100.00;100824.16;7392292;19;20066;-53
2022/08/30 04:21:57;;;;;;;0.38;0.38;;;;;;;13.28;100.00;100827.88;7392274;19;20022;-53
2022/08/30 04:24:24;;;;;;;0.40;0.30;;;;;;;13.26;100.00;100818.41;7393117;19;20062;-53
2022/08/30 04:26:50;;;;;;;0.30;0.10;;;;;;;13.09;100.00;100825.59;7394004;19;20037;-53
2022/08/30 04:29:16;;;;;;;0.82;0.47;;;;;;;12.93;100.00;100824.66;7391245;19;20021;-53
2022/08/30 04:31:44;;;;;;;0.10;0.10;;;;;;;12.86;100.00;100824.97;7390667;19;20353;-53
2022/08/30 04:34:11;;;;;;;1.85;0.40;;;;;;;12.79;100.00;100821.75;7391037;19;20015;-53
2022/08/30 04:36:38;;;;;;;0.30;0.30;;;;;;;12.78;100.00;100822.97;7393515;19;20012;-53
2022/08/30 04:39:05;;;;;;;0.43;0.20;;;;;;;12.72;100.00;100839.59;7390696;19;20003;-53
2022/08/30 04:41:32;;;;;;;0.60;0.60;;;;;;;12.51;100.00;100836.97;7389890;19;20070;-53
2022/08/30 04:44:01;;;;;;;0.30;0.30;;;;;;;12.33;100.00;100831.34;7390914;19;20040;-53
2022/08/30 04:46:29;;;;;;;0.73;0.47;;;;;;;12.66;100.00;100829.50;7393317;19;20010;-53
2022/08/30 04:48:55;;;;;;;0.60;0.60;;;;;;;12.77;100.00;100832.63;7391215;19;20018;-53
2022/08/30 04:51:21;;;;;;;3.42;1.77;;;;;;;12.66;100.00;100829.50;7390257;19;20015;-54
2022/08/30 04:53:47;;;;;;;3.15;0.68;;;;;;;12.54;100.00;100824.88;7390407;19;20010;-53
2022/08/30 04:56:17;;;;;;;0.57;0.40;;;;;;;12.43;100.00;100830.13;7390426;19;20812;-54
2022/08/30 04:58:45;;;;;;;0.68;0.60;;;;;;;12.48;100.00;100835.09;7390363;19;20074;-53
2022/08/30 05:01:19;;;;;;;1.38;0.60;;;;;;;12.43;100.00;100839.28;7389230;19;20491;-53
2022/08/30 05:03:50;;;;;;;0.50;0.50;;;;;;;12.37;100.00;100831.97;7390504;19;20066;-54
2022/08/30 05:06:17;;;;;;;1.98;0.57;;;;;;;12.31;100.00;100836.63;7390217;19;20007;-54
2022/08/30 05:08:44;;;;;;;3.53;1.05;;;;;;;12.02;100.00;100840.59;7390350;19;20010;-54
2022/08/30 05:11:10;;;;;;;0.50;0.40;;;;;;;12.00;100.00;100837.50;7392180;19;20038;-53
2022/08/30 05:13:37;;;;;;;0.45;0.45;;;;;;;11.89;100.00;100836.41;7390245;19;20027;-54
2022/08/30 05:16:06;;;;;;;1.02;1.02;;;;;;;11.85;100.00;100842.13;7392338;19;20007;-54
2022/08/30 05:18:34;;;;;;;1.55;0.70;;;;;;;12.03;100.00;100836.59;7390371;19;20369;-54
2022/08/30 05:21:08;;;;;;;1.55;1.05;;;;;;;12.01;100.00;100841.88;7388183;19;20049;-54
2022/08/30 05:23:35;;;;;;;0.68;0.68;;;;;;;12.00;100.00;100831.13;7388897;19;20011;-54
2022/08/30 05:26:25;;;;;;;0.20;0.20;;;;;;;12.12;100.00;100822.66;7394841;19;20014;-54
2022/08/30 05:28:52;;;;;;;1.27;0.47;;;;;;;12.11;100.00;100829.47;7389525;19;20369;-54
2022/08/30 05:31:20;;;;;;;1.70;0.50;;;;;;;12.21;100.00;100833.06;7389354;19;20021;-53
2022/08/30 05:33:51;;;;;;;0.30;0.30;;;;;;;12.27;100.00;100838.78;7386824;19;20042;-54
2022/08/30 05:36:18;;;;;;;0.30;0.30;;;;;;;12.30;100.00;100835.09;7390267;19;20006;-53
2022/08/30 05:38:45;;;;;;;0.30;0.30;;;;;;;12.32;100.00;100832.59;7387926;19;20006;-54
2022/08/30 05:41:12;;;;;;;0.65;0.40;;;;;;;12.33;100.00;100832.13;7387371;19;20039;-53
2022/08/30 05:43:38;;;;;;;0.88;0.45;;;;;;;12.41;100.00;100832.63;7388754;19;20329;-53
2022/08/30 05:46:09;;;;;;;1.00;0.43;;;;;;;12.54;100.00;100833.25;7398109;19;20010;-53
2022/08/30 05:48:36;;;;;;;2.83;0.70;;;;;;;12.70;100.00;100827.34;7397173;19;20438;-53
2022/08/30 05:51:10;;;;;;;0.40;0.20;;;;;;;12.86;100.00;100827.03;7397703;19;20010;-53
2022/08/30 05:53:37;;;;;;;0.57;0.38;;;;;;;13.02;100.00;100828.69;7397108;19;20013;-54
2022/08/30 05:56:07;;;;;;;0.57;0.55;;;;;;;13.14;100.00;100830.56;7401168;19;20007;-53
2022/08/30 05:58:34;;;;;;;0.17;0.17;;;;;;;13.20;100.00;100832.28;7396276;19;20014;-54
2022/08/30 06:01:00;;;;;;;0.30;0.30;;;;;;;13.13;100.00;100831.81;7394245;19;20014;-54
2022/08/30 06:03:27;;;;;;;0.20;0.20;;;;;;;13.12;100.00;100835.88;7396814;19;20011;-53
2022/08/30 06:05:53;;;;;;;0.85;0.30;;;;;;;13.11;100.00;100831.50;7396823;19;20025;-54
2022/08/30 06:08:20;;;;;;;0.50;0.50;;;;;;;13.24;100.00;100838.47;7394382;19;20025;-54
2022/08/30 06:10:46;;;;;;;0.47;0.47;;;;;;;13.17;100.00;100838.00;7396620;19;20010;-54
2022/08/30 06:13:13;;;;;;;1.00;0.63;;;;;;;13.23;100.00;100831.31;7395699;19;20014;-54
2022/08/30 06:15:42;;;;;;;1.23;0.55;;;;;;;13.35;100.00;100832.38;7397155;19;20019;-54
2022/08/30 06:18:08;;;;;;;0.30;0.15;;;;;;;13.39;100.00;100839.38;7395014;19;20011;-54
2022/08/30 06:20:43;;;;;;;0.30;0.30;;;;;;;13.45;100.00;100833.91;7394782;19;20015;-53
2022/08/30 06:23:09;;;;;;;0.28;0.28;;;;;;;13.51;100.00;100835.59;7396483;19;20459;-54
2022/08/30 06:25:36;;;;;;;0.65;0.40;;;;;;;13.53;100.00;100835.91;7398879;19;20038;-54
2022/08/30 06:28:06;;;;;;;2.63;0.30;;;;;;;13.28;100.00;100832.72;7395510;19;20007;-54
2022/08/30 06:30:33;;;;;;;0.30;0.30;;;;;;;13.27;100.00;100837.53;7396044;19;20116;-54
2022/08/30 06:32:59;;;;;;;0.40;0.40;;;;;;;13.25;100.00;100839.25;7395149;19;20078;-54
2022/08/30 06:35:27;;;;;;;0.40;0.40;;;;;;;13.03;100.00;100831.03;7396474;19;20010;-54
2022/08/30 06:37:54;;;;;;;1.70;0.65;;;;;;;13.19;100.00;100830.72;7395592;19;20494;-54
2022/08/30 06:40:21;;;;;;;0.25;0.25;;;;;;;13.13;100.00;100843.78;7394235;19;20023;-53
2022/08/30 06:42:49;;;;;;;0.65;0.38;;;;;;;13.60;100.00;100843.16;7393442;19;20020;-53
2022/08/30 06:45:15;;;;;;;0.93;0.20;;;;;;;13.83;100.00;100833.28;7397288;19;20011;-53
2022/08/30 06:47:42;;;;;;;0.68;0.68;;;;;;;13.98;100.00;100834.13;7397223;19;20010;-54
2022/08/30 06:50:09;;;;;;;0.13;0.10;;;;;;;14.03;100.00;100841.91;7398685;19;20030;-54
2022/08/30 06:52:36;;;;;;;0.20;0.20;;;;;;;14.06;100.00;100846.53;7398001;19;20094;-54
2022/08/30 06:55:02;;;;;;;0.17;0.17;;;;;;;14.17;100.00;100841.19;7397145;19;20011;-54
2022/08/30 06:57:28;;;;;;;0.63;0.20;;;;;;;14.17;100.00;100843.97;7394440;19;20007;-54
2022/08/30 06:59:57;;;;;;;0.40;0.30;;;;;;;14.21;100.00;100836.16;7397116;19;20024;-54
2022/08/30 07:02:24;;;;;;;0.30;0.30;;;;;;;14.36;100.00;100837.81;7395220;19;20015;-54
2022/08/30 07:04:51;;;;;;;0.10;0.10;;;;;;;14.39;100.00;100838.88;7397630;19;20026;-53
2022/08/30 07:07:17;;;;;;;1.20;0.55;;;;;;;14.64;100.00;100838.38;7396221;19;20006;-53
2022/08/30 07:09:43;;;;;;;0.55;0.17;;;;;;;14.87;100.00;100837.56;7395057;19;20373;-53
2022/08/30 07:12:10;;;;;;;0.10;0.10;;;;;;;15.13;100.00;100832.16;7395642;19;20631;-54
2022/08/30 07:14:37;;;;;;;0.45;0.32;;;;;;;15.30;100.00;100832.44;7397686;19;20010;-54
2022/08/30 07:18:49;;;;;;;0.47;0.32;;;;;;;15.29;100.00;100826.06;7396623;19;20355;-54
2022/08/30 07:19:51;;;;;;;1.15;0.22;;;;;;;15.52;100.00;100836.44;7396160;19;20072;-53
2022/08/30 07:22:17;;;;;;;0.28;0.22;;;;;;;15.63;100.00;100838.66;7396542;19;20006;-54
2022/08/30 07:24:44;;;;;;;0.30;0.15;;;;;;;15.73;100.00;100828.84;7397803;19;20656;-54
2022/08/30 07:27:10;;;;;;;3.20;0.20;;;;;;;15.96;100.00;100825.09;7397760;19;20035;-54
2022/08/30 07:29:36;;;;;;;0.20;0.20;;;;;;;16.08;100.00;100832.44;7395905;19;20011;-54
2022/08/30 07:32:03;;;;;;;0.43;0.20;;;;;;;16.26;100.00;100837.03;7397642;19;20364;-53
2022/08/30 07:34:29;;;;;;;0.30;0.30;;;;;;;16.49;100.00;100828.38;7397620;19;20013;-54
2022/08/30 07:36:55;;;;;;;0.10;0.10;;;;;;;16.63;100.00;100827.53;7397570;19;20015;-53
2022/08/30 07:39:21;;;;;;;0.10;0.10;;;;;;;16.82;100.00;100832.88;7393737;19;20010;-54
2022/08/30 07:41:49;;;;;;;0.30;0.20;;;;;;;17.02;100.00;100824.41;7388719;19;20015;-54
2022/08/30 07:44:16;;;;;;;0.82;0.10;;;;;;;17.10;100.00;100819.88;7393023;19;20588;-54
2022/08/30 07:46:42;;;;;;;0.10;0.10;;;;;;;17.21;100.00;100828.41;7394400;19;20527;-54
2022/08/30 07:49:10;;;;;;;0.38;0.38;;;;;;;17.33;100.00;100828.00;7395809;19;20014;-54
2022/08/30 07:51:37;;;;;;;9.23;0.38;;;;;;;17.33;100.00;100827.22;7392815;19;20013;-55
2022/08/30 07:54:03;;;;;;;0.10;0.10;;;;;;;17.43;100.00;100825.81;7393318;19;20006;-54
2022/08/30 07:56:29;;;;;;;0.20;0.20;;;;;;;17.65;100.00;100828.06;7395546;19;20013;-54
2022/08/30 07:58:56;;;;;;;0.10;0.10;;;;;;;17.86;100.00;100827.44;7394595;19;20011;-54
2022/08/30 08:01:22;;;;;;;0.15;0.05;;;;;;;17.97;100.00;100829.56;7393734;19;20042;-53
2022/08/30 08:03:49;;;;;;;0.88;0.05;;;;;;;17.98;100.00;100828.25;7391562;19;20084;-53
2022/08/30 08:06:17;;;;;;;0.10;0.10;;;;;;;18.02;100.00;100826.75;7394037;19;20006;-53
2022/08/30 08:08:44;;;;;;;0.57;0.50;;;;;;;18.08;100.00;100835.25;7390728;19;20017;-54
2022/08/30 08:11:14;;;;;;;1.55;0.08;;;;;;;18.09;100.00;100846.03;7395957;19;20015;-54
2022/08/30 08:13:42;;;;;;;0.90;0.20;;;;;;;17.92;100.00;100845.16;7396335;19;20034;-53
2022/08/30 08:16:08;;;;;;;1.65;0.20;;;;;;;17.97;100.00;100846.47;7394693;19;20027;-53
2022/08/30 08:18:34;;;;;;;12.15;0.52;;;;;;;17.95;100.00;100844.13;7391222;19;20007;-53
2022/08/30 08:21:01;;;;;;;0.35;0.20;;;;;;;18.06;100.00;100854.72;7388772;19;20013;-54
2022/08/30 08:23:27;;;;;;;0.20;0.20;;;;;;;18.00;100.00;100851.84;7389816;19;20014;-53
2022/08/30 08:25:53;;;;;;;7.22;0.30;;;;;;;17.99;100.00;100855.19;7395634;19;20023;-53
2022/08/30 08:28:20;;;;;;;1.25;0.80;;;;;;;17.96;100.00;100851.31;7391162;19;20027;-53
2022/08/30 08:30:47;;;;;;;0.88;0.17;;;;;;;18.11;100.00;100857.56;7391399;19;20118;-54
2022/08/30 08:33:13;;;;;;;0.10;0.00;;;;;;;18.12;100.00;100859.13;7392016;19;20010;-57
2022/08/30 08:35:40;;;;;;;0.43;0.20;;;;;;;18.18;100.00;100854.28;7393083;19;20017;-57
2022/08/30 08:38:06;;;;;;;0.20;0.10;;;;;;;18.18;100.00;100859.16;7390635;19;20013;-57
2022/08/30 08:40:42;;;;;;;1.42;0.30;;;;;;;18.32;100.00;100849.72;7388798;19;20007;-58
2022/08/30 08:43:18;;;;;;;0.30;0.10;;;;;;;18.59;100.00;100857.59;7390275;19;20019;-58
2022/08/30 08:46:03;;;;;;;0.63;0.10;;;;;;;18.76;100.00;100854.81;7392282;19;20554;-58
2022/08/30 08:48:42;;;;;;;0.10;0.00;;;;;;;18.91;100.00;100853.34;7391286;19;20021;-57
2022/08/30 08:54:07;;;;;;;0.52;0.17;;;;;;;19.27;100.00;100860.09;7390667;19;20086;-58
2022/08/30 08:56:35;;;;;;;0.10;0.10;;;;;;;19.34;100.00;100859.59;7393699;19;20011;-58
2022/08/30 08:59:01;;;;;;;0.50;0.50;;;;;;;19.53;100.00;100854.97;7390000;19;20010;-58
2022/08/30 09:01:29;;;;;;;0.38;0.20;;;;;;;19.61;100.00;100856.03;7389335;19;20007;-57
2022/08/30 09:03:57;;;;;;;0.10;0.10;;;;;;;19.61;100.00;100863.72;7390135;19;20011;-58
2022/08/30 09:06:56;;;;;;;0.17;0.13;;;;;;;19.70;100.00;100859.88;7392524;19;20022;-57
2022/08/30 09:09:41;;;;;;;1.65;0.32;;;;;;;19.77;100.00;100860.13;7390205;19;20097;-59
2022/08/30 09:12:10;;;;;;;0.22;0.00;;;;;;;19.82;100.00;100862.16;7394347;19;20014;-58
2022/08/30 09:14:50;;;;;;;0.75;0.10;;;;;;;19.88;100.00;100867.84;7390654;19;20006;-57
2022/08/30 09:17:18;;;;;;;0.10;0.00;;;;;;;19.85;100.00;100868.84;7395283;19;20459;-58
2022/08/30 09:19:57;;;;;;;0.40;0.20;;;;;;;19.84;100.00;100867.31;7390809;19;20638;-58
2022/08/30 09:22:38;;;;;;;0.10;0.10;;;;;;;19.82;100.00;100875.53;7397725;19;20452;-57
2022/08/30 09:25:07;;;;;;;0.68;0.28;;;;;;;19.87;100.00;100872.72;7400645;19;20074;-58
2022/08/30 09:27:37;;;;;;;0.10;0.10;;;;;;;19.88;100.00;100873.50;7397878;19;20062;-57
2022/08/30 09:30:03;;;;;;;0.13;0.10;;;;;;;19.97;100.00;100876.03;7397457;19;20021;-58
2022/08/30 09:32:42;;;;;;;0.73;0.17;;;;;;;20.04;100.00;100875.50;7397062;19;20078;-57
2022/08/30 09:35:12;;;;;;;0.93;0.10;;;;;;;20.08;100.00;100870.34;7397331;19;20010;-58
2022/08/30 09:38:21;;;;;;;1.47;0.13;;;;;;;20.33;100.00;100869.31;7396349;19;20471;-58
2022/08/30 09:40:50;;;;;;;0.10;0.05;;;;;;;20.26;100.00;100867.00;7394339;19;20850;-58
2022/08/30 09:43:16;;;;;;;0.50;0.13;;;;;;;20.17;100.00;100872.91;7395761;19;20783;-58
2022/08/30 09:45:47;;;;;;;0.45;0.20;;;;;;;20.39;100.00;100872.88;7397867;19;20493;-66
2022/08/30 09:48:36;;;;;;;0.45;0.10;;;;;;;20.61;100.00;100867.16;7397453;19;20011;-67
2022/08/30 09:51:08;;;;;;;0.63;0.10;;;;;;;20.61;100.00;100875.66;7396048;19;20011;-66
2022/08/30 09:53:49;;;;;;;0.25;0.20;;;;;;;20.67;100.00;100875.63;7396544;19;20388;-64
2022/08/30 09:56:54;;;;;;;0.10;0.00;;;;;;;20.88;100.00;100880.41;7397546;19;20415;-58
2022/08/30 09:59:31;;;;;;;1.48;0.20;;;;;;;21.07;100.00;100875.69;7394710;19;20069;-58
2022/08/30 10:02:16;;;;;;;3.42;0.10;;;;;;;21.28;100.00;100872.47;7396954;19;20070;-58
2022/08/30 10:04:57;;;;;;;0.03;0.00;;;;;;;21.32;100.00;100872.97;7396798;19;20034;-58
2022/08/30 10:07:26;;;;;;;0.22;0.10;;;;;;;21.27;100.00;100873.78;7396954;19;20017;-58
2022/08/30 10:10:04;;;;;;;0.10;0.10;;;;;;;21.43;100.00;100882.16;7396980;19;20110;-58
2022/08/30 10:12:36;;;;;;;0.20;0.08;;;;;;;21.28;100.00;100884.59;7400103;19;20011;-59
2022/08/30 10:15:24;;;;;;;0.30;0.10;;;;;;;21.20;100.00;100883.63;7394785;19;20014;-58
2022/08/30 10:18:25;;;;;;;0.20;0.10;;;;;;;21.39;100.00;100883.75;7395882;19;20017;-58
2022/08/30 10:21:07;;;;;;;0.08;0.00;;;;;;;21.42;100.00;100885.53;7392094;19;20015;-58
2022/08/30 10:23:40;;;;;;;0.08;0.00;;;;;;;21.42;100.00;100874.94;7396668;19;20018;-59
2022/08/30 10:26:16;;;;;;;0.10;0.08;;;;;;;21.56;100.00;100873.81;7398231;19;20073;-59
2022/08/30 10:28:49;;;;;;;3.22;0.20;;;;;;;21.61;100.00;100875.09;7395861;19;20041;-58
2022/08/30 10:31:27;;;;;;;0.10;0.10;;;;;;;21.65;100.00;100875.56;7394896;19;20408;-58
2022/08/30 10:34:05;;;;;;;2.05;0.35;;;;;;;21.81;100.00;100868.97;7393789;19;20011;-58
2022/08/30 10:36:41;;;;;;;0.45;0.20;;;;;;;21.95;100.00;100873.50;7399077;19;20069;-57
2022/08/30 10:39:12;;;;;;;0.28;0.10;;;;;;;21.88;100.00;100874.09;7395661;19;20080;-58
2022/08/30 10:41:49;;;;;;;0.25;0.10;;;;;;;22.13;100.00;100872.84;7392742;19;20014;-59
2022/08/30 10:44:25;;;;;;;0.50;0.30;;;;;;;22.24;100.00;100872.69;7395001;19;20133;-59
2022/08/30 10:47:21;;;;;;;1.58;0.20;;;;;;;22.42;100.00;100866.31;7393999;19;20034;-59
2022/08/30 10:49:52;;;;;;;2.90;0.28;;;;;;;22.37;100.00;100869.22;7395202;19;20022;-60
2022/08/30 10:52:40;;;;;;;0.63;0.10;;;;;;;22.50;100.00;100872.91;7395503;19;20038;-60
2022/08/30 10:55:17;;;;;;;0.10;0.10;;;;;;;22.55;100.00;100874.16;7395871;19;20021;-59
2022/08/30 10:57:44;;;;;;;0.20;0.10;;;;;;;22.95;100.00;100875.22;7394752;19;20038;-61
2022/08/30 11:00:23;;;;;;;0.45;0.13;;;;;;;23.17;100.00;100866.41;7394191;19;20022;-61
2022/08/30 11:02:58;;;;;;;0.65;0.03;;;;;;;23.22;100.00;100874.06;7394291;19;20361;-59
2022/08/30 11:05:30;;;;;;;6.28;0.17;;;;;;;23.28;100.00;100871.91;7395367;19;20017;-59
2022/08/30 11:08:30;;;;;;;0.50;0.10;;;;;;;23.59;100.00;100868.34;7394719;19;20018;-60
2022/08/30 11:11:11;;;;;;;0.00;0.00;;;;;;;23.20;100.00;100871.00;7395456;19;20032;-59
2022/08/30 11:13:40;;;;;;;2.20;0.20;;;;;;;23.61;99.48;100868.56;7393777;19;20079;-60
2022/08/30 11:16:08;;;;;;;0.22;0.20;;;;;;;23.60;100.00;100872.72;7395549;19;20344;-59
2022/08/30 11:18:46;;;;;;;0.10;0.00;;;;;;;23.72;99.05;100871.22;7394014;19;20015;-59
2022/08/30 11:21:33;;;;;;;0.55;0.20;;;;;;;23.77;98.53;100861.84;7391951;19;20042;-60
2022/08/30 11:24:07;;;;;;;1.95;0.10;;;;;;;23.80;100.00;100866.44;7394679;19;20019;-59
2022/08/30 11:26:45;;;;;;;0.43;0.25;;;;;;;23.76;100.00;100860.28;7396828;19;20014;-59
2022/08/30 11:29:39;;;;;;;0.20;0.10;;;;;;;23.83;99.56;100862.50;7392057;19;20015;-60
2022/08/30 11:32:12;;;;;;;2.88;0.15;;;;;;;23.87;98.11;100862.94;7391719;19;20014;-59
2022/08/30 11:34:46;;;;;;;1.58;0.13;;;;;;;23.76;94.20;100860.28;7393419;19;20037;-59